createdAt,value
2023-02-12T00:00:47.853Z,5.77
2023-02-12T00:03:16.443Z,5.10
2023-02-12T00:05:43.377Z,4.59
2023-02-12T00:08:12.303Z,4.36
2023-02-12T00:10:43.936Z,4.96
2023-02-12T00:13:15.404Z,5.58
2023-02-12T00:15:44.183Z,6.00
2023-02-12T00:18:11.443Z,6.30
2023-02-12T00:20:38.693Z,6.36
2023-02-12T00:23:06.794Z,5.83
2023-02-12T00:25:35.266Z,5.20
2023-02-12T00:28:02.243Z,4.69
2023-02-12T00:30:30.132Z,4.43
2023-02-12T00:32:57.362Z,4.98
2023-02-12T00:35:24.547Z,5.69
2023-02-12T00:37:51.659Z,6.12
2023-02-12T00:40:19.531Z,5.93
2023-02-12T00:42:46.986Z,5.27
2023-02-12T00:45:14.148Z,4.68
2023-02-12T00:47:41.190Z,4.26
2023-02-12T00:50:08.958Z,3.93
2023-02-12T00:52:36.015Z,3.87
2023-02-12T00:55:03.789Z,4.61
2023-02-12T00:57:31.055Z,5.29
2023-02-12T00:59:58.098Z,5.65
2023-02-12T01:02:25.857Z,5.19
2023-02-12T01:04:52.838Z,4.54
2023-02-12T01:07:19.760Z,4.04
2023-02-12T01:09:46.626Z,3.68
2023-02-12T01:12:13.560Z,3.61
2023-02-12T01:14:40.511Z,4.37
2023-02-12T01:17:09.934Z,5.11
2023-02-12T01:19:36.872Z,5.70
2023-02-12T01:22:04.435Z,5.91
2023-02-12T01:24:31.384Z,5.31
2023-02-12T01:26:58.715Z,4.63
2023-02-12T01:29:25.547Z,4.08
2023-02-12T01:31:52.609Z,3.67
2023-02-12T01:34:19.624Z,3.32
2023-02-12T01:36:46.556Z,3.22
2023-02-12T01:39:13.702Z,3.88
2023-02-12T01:41:44.036Z,4.60
2023-02-12T01:44:19.989Z,5.01
2023-02-12T01:46:50.577Z,5.14
2023-02-12T01:49:24.742Z,4.62
2023-02-12T01:51:59.474Z,4.05
2023-02-12T01:54:28.474Z,3.62
2023-02-12T01:56:55.844Z,3.30
2023-02-12T01:59:24.103Z,3.20
2023-02-12T02:01:51.043Z,3.84
2023-02-12T02:04:24.105Z,4.51
2023-02-12T02:06:56.504Z,5.07
2023-02-12T02:09:24.648Z,5.48
2023-02-12T02:12:12.008Z,5.00
2023-02-12T02:14:40.774Z,4.27
2023-02-12T02:17:25.944Z,3.83
2023-02-12T02:20:24.737Z,3.44
2023-02-12T02:23:30.068Z,3.11
2023-02-12T02:26:41.944Z,3.17
2023-02-12T02:29:26.842Z,4.23
2023-02-12T02:31:59.199Z,5.03
2023-02-12T02:34:53.039Z,5.42
2023-02-12T02:37:48.537Z,4.80
2023-02-12T02:40:21.061Z,4.06
2023-02-12T02:42:56.597Z,3.58
2023-02-12T02:45:42.243Z,3.23
2023-02-12T02:48:26.992Z,2.95
2023-02-12T02:51:01.835Z,2.99
2023-02-12T02:53:33.979Z,3.83
2023-02-12T02:56:03.850Z,4.66
2023-02-12T02:58:42.048Z,5.05
2023-02-12T03:01:19.276Z,4.44
2023-02-12T03:03:52.955Z,3.86
2023-02-12T03:06:30.801Z,3.43
2023-02-12T03:09:05.685Z,3.13
2023-02-12T03:11:34.558Z,2.89
2023-02-12T03:14:21.144Z,2.87
2023-02-12T03:17:04.254Z,3.62
2023-02-12T03:19:47.851Z,4.34
2023-02-12T03:22:20.562Z,4.99
2023-02-12T03:25:09.924Z,5.30
2023-02-12T03:27:41.746Z,4.66
2023-02-12T03:30:09.739Z,4.04
2023-02-12T03:32:42.464Z,3.57
2023-02-12T03:35:13.136Z,3.20
2023-02-12T03:38:02.194Z,2.89
2023-02-12T03:41:05.546Z,2.88
2023-02-12T03:43:50.623Z,3.76
2023-02-12T03:46:24.100Z,4.53
2023-02-12T03:49:03.071Z,4.97
2023-02-12T03:51:39.794Z,4.45
2023-02-12T03:54:09.655Z,3.80
2023-02-12T03:56:52.623Z,3.33
2023-02-12T03:59:22.032Z,2.94
2023-02-12T04:01:52.025Z,2.68
2023-02-12T04:04:19.689Z,2.66
2023-02-12T04:06:49.264Z,3.42
2023-02-12T04:09:17.298Z,4.24
2023-02-12T04:12:22.565Z,4.88
2023-02-12T04:15:15.306Z,5.01
2023-02-12T04:17:58.478Z,4.28
2023-02-12T04:20:54.438Z,3.69
2023-02-12T04:23:30.498Z,3.22
2023-02-12T04:26:25.615Z,2.91
2023-02-12T04:29:01.186Z,2.88
2023-02-12T04:31:36.681Z,3.62
2023-02-12T04:34:20.982Z,4.31
2023-02-12T04:37:10.164Z,4.86
2023-02-12T04:39:40.723Z,5.08
2023-02-12T04:42:08.281Z,4.54
2023-02-12T04:44:39.023Z,3.97
2023-02-12T04:47:05.972Z,3.52
2023-02-12T04:49:35.894Z,3.21
2023-02-12T04:52:02.733Z,2.96
2023-02-12T04:54:29.592Z,2.75
2023-02-12T04:57:02.229Z,2.72
2023-02-12T04:59:29.114Z,3.44
2023-02-12T05:01:55.973Z,4.24
2023-02-12T05:04:22.911Z,4.88
2023-02-12T05:06:49.763Z,5.26
2023-02-12T05:09:19.377Z,4.76
2023-02-12T05:11:46.238Z,4.13
2023-02-12T05:14:13.993Z,3.64
2023-02-12T05:16:41.353Z,3.28
2023-02-12T05:19:09.783Z,3.01
2023-02-12T05:21:38.133Z,2.77
2023-02-12T05:24:05.530Z,2.56
2023-02-12T05:26:32.432Z,2.55
2023-02-12T05:28:59.293Z,3.25
2023-02-12T05:31:26.346Z,4.00
2023-02-12T05:33:53.510Z,4.63
2023-02-12T05:36:22.830Z,5.02
2023-02-12T05:38:52.260Z,4.53
2023-02-12T05:41:22.212Z,3.88
2023-02-12T05:43:50.038Z,3.41
2023-02-12T05:46:18.520Z,3.04
2023-02-12T05:48:46.108Z,2.76
2023-02-12T05:51:16.735Z,2.53
2023-02-12T05:53:43.622Z,2.33
2023-02-12T05:56:15.106Z,2.32
2023-02-12T05:58:45.191Z,3.04
2023-02-12T06:01:18.093Z,3.78
2023-02-12T06:03:45.091Z,4.40
2023-02-12T06:06:15.394Z,4.70
2023-02-12T06:08:42.499Z,4.22
2023-02-12T06:11:14.588Z,3.66
2023-02-12T06:13:42.010Z,3.19
2023-02-12T06:16:24.311Z,2.84
2023-02-12T06:18:52.812Z,2.56
2023-02-12T06:21:21.468Z,2.37
2023-02-12T06:23:49.933Z,2.32
2023-02-12T06:26:17.565Z,3.04
2023-02-12T06:28:45.531Z,3.96
2023-02-12T06:31:24.510Z,4.48
2023-02-12T06:33:52.758Z,4.08
2023-02-12T06:36:20.886Z,3.60
2023-02-12T06:38:48.385Z,3.27
2023-02-12T06:41:15.543Z,3.05
2023-02-12T06:43:42.496Z,2.93
2023-02-12T06:46:10.112Z,2.86
2023-02-12T06:48:37.478Z,2.87
2023-02-12T06:51:16.558Z,2.88
2023-02-12T06:53:44.706Z,2.90
2023-02-12T06:56:13.457Z,2.99
2023-02-12T06:58:42.532Z,3.23
2023-02-12T07:01:18.798Z,3.41
2023-02-12T07:03:54.683Z,3.75
2023-02-12T07:06:23.015Z,4.89
2023-02-12T07:08:50.066Z,6.32
2023-02-12T07:11:17.490Z,7.70
2023-02-12T07:13:45.581Z,8.54
2023-02-12T07:16:15.293Z,9.15
2023-02-12T07:18:44.477Z,9.53
2023-02-12T07:21:12.643Z,10.14
2023-02-12T07:23:40.136Z,10.97
2023-02-12T07:26:12.975Z,11.86
2023-02-12T07:28:40.598Z,13.08
2023-02-12T07:31:12.476Z,14.31
2023-02-12T07:33:40.191Z,15.52
2023-02-12T07:36:15.130Z,16.68
2023-02-12T07:38:42.655Z,17.80
2023-02-12T07:41:18.269Z,18.74
2023-02-12T07:43:46.688Z,19.71
2023-02-12T07:46:17.588Z,20.45
2023-02-12T07:48:46.000Z,20.58
2023-02-12T07:51:16.019Z,20.92
2023-02-12T07:53:42.964Z,21.65
2023-02-12T07:56:15.981Z,22.27
2023-02-12T07:58:45.278Z,22.23
2023-02-12T08:01:36.670Z,22.30
2023-02-12T08:04:07.089Z,22.64
2023-02-12T08:06:37.799Z,22.90
2023-02-12T08:09:10.047Z,23.32
2023-02-12T08:11:38.671Z,23.93
2023-02-12T08:14:06.121Z,24.45
2023-02-12T08:16:37.446Z,24.46
2023-02-12T08:19:16.965Z,24.66
2023-02-12T08:21:49.118Z,24.96
2023-02-12T08:24:16.077Z,25.29
2023-02-12T08:26:42.916Z,25.75
2023-02-12T08:29:13.699Z,26.16
2023-02-12T08:31:43.919Z,26.40
2023-02-12T08:34:31.819Z,26.56
2023-02-12T08:36:59.468Z,26.79
2023-02-12T08:39:29.383Z,26.39
2023-02-12T08:41:57.594Z,25.56
2023-02-12T08:44:24.854Z,24.74
2023-02-12T08:46:53.418Z,24.03
2023-02-12T08:49:23.893Z,23.59
2023-02-12T08:54:51.700Z,22.39
2023-02-12T08:57:25.913Z,21.89
2023-02-12T08:59:53.452Z,21.82
2023-02-12T09:02:20.470Z,22.31
2023-02-12T09:04:47.392Z,23.05
2023-02-12T09:07:14.247Z,23.88
2023-02-12T09:09:41.085Z,24.68
2023-02-12T09:12:08.049Z,25.03
2023-02-12T09:14:34.967Z,24.81
2023-02-12T09:17:01.938Z,24.36
2023-02-12T09:19:28.998Z,24.30
2023-02-12T09:21:56.901Z,24.51
2023-02-12T09:24:27.844Z,25.07
2023-02-12T09:26:55.706Z,25.31
2023-02-12T09:29:22.534Z,25.06
2023-02-12T09:31:49.736Z,25.34
2023-02-12T09:34:16.748Z,26.03
2023-02-12T09:36:43.590Z,26.61
2023-02-12T09:39:10.547Z,26.94
2023-02-12T09:42:08.391Z,27.19
2023-02-12T09:44:46.694Z,27.50
2023-02-12T09:47:23.685Z,27.81
2023-02-12T09:50:02.642Z,28.11
2023-02-12T09:52:30.471Z,27.98
2023-02-12T09:55:01.416Z,27.56
2023-02-12T09:57:37.670Z,27.18
2023-02-12T10:00:25.193Z,26.44
2023-02-12T10:02:53.892Z,25.53
2023-02-12T10:05:29.237Z,25.41
2023-02-12T10:08:23.934Z,25.13
2023-02-12T10:11:21.389Z,24.19
2023-02-12T10:14:16.561Z,23.50
2023-02-12T10:16:56.193Z,23.45
2023-02-12T10:19:33.899Z,22.91
2023-02-12T10:22:21.834Z,22.42
2023-02-12T10:28:39.737Z,21.03
2023-02-12T10:31:15.125Z,20.57
2023-02-12T10:33:53.344Z,20.68
2023-02-12T10:39:54.110Z,21.79
2023-02-12T10:42:52.444Z,21.67
2023-02-12T10:46:10.225Z,20.89
2023-02-12T10:49:10.547Z,19.83
2023-02-12T10:51:55.838Z,19.44
2023-02-12T10:54:47.384Z,19.17
2023-02-12T10:57:22.190Z,19.10
2023-02-12T10:59:53.284Z,19.15
2023-02-12T11:02:22.746Z,19.06
2023-02-12T11:04:50.474Z,18.85
2023-02-12T11:07:18.070Z,18.60
2023-02-12T11:09:49.987Z,18.08
2023-02-12T11:12:22.926Z,17.79
2023-02-12T11:15:01.826Z,17.65
2023-02-12T11:17:29.925Z,17.55
2023-02-12T11:20:18.114Z,17.40
2023-02-12T11:22:58.095Z,16.97
2023-02-12T11:25:26.792Z,16.74
2023-02-12T11:28:19.733Z,16.65
2023-02-12T11:31:17.786Z,16.19
2023-02-12T11:33:45.939Z,15.54
2023-02-12T11:36:15.728Z,14.95
2023-02-12T11:39:16.766Z,14.43
2023-02-12T11:41:44.042Z,13.93
2023-02-12T11:44:21.793Z,13.73
2023-02-12T11:47:03.886Z,13.92
2023-02-12T11:49:35.317Z,14.08
2023-02-12T11:52:04.370Z,14.14
2023-02-12T11:54:39.403Z,14.46
2023-02-12T11:57:06.304Z,14.74
2023-02-12T11:59:41.026Z,14.73
2023-02-12T12:02:26.332Z,14.55
2023-02-12T12:04:56.562Z,14.55
2023-02-12T12:07:31.602Z,14.48
2023-02-12T12:10:46.447Z,14.28
2023-02-12T12:13:18.437Z,13.80
2023-02-12T12:16:09.516Z,13.54
2023-02-12T12:19:06.481Z,13.33
2023-02-12T12:22:21.618Z,13.33
2023-02-12T12:24:57.038Z,14.13
2023-02-12T12:28:06.776Z,14.56
2023-02-12T12:31:01.117Z,14.31
2023-02-12T12:33:48.960Z,13.96
2023-02-12T12:36:34.021Z,13.54
2023-02-12T12:39:21.544Z,13.00
2023-02-12T12:42:08.675Z,12.41
2023-02-12T12:44:41.581Z,11.71
2023-02-12T12:47:30.395Z,11.23
2023-02-12T12:50:09.511Z,11.01
2023-02-12T12:53:02.656Z,10.79
2023-02-12T12:55:59.260Z,10.59
2023-02-12T12:58:57.276Z,10.44
2023-02-12T13:01:38.139Z,10.18
2023-02-12T13:04:22.415Z,9.97
2023-02-12T13:07:38.184Z,9.83
2023-02-12T13:10:16.708Z,9.62
2023-02-12T13:16:13.089Z,9.26
2023-02-12T13:19:12.560Z,8.98
2023-02-12T13:21:48.746Z,8.80
2023-02-12T13:24:37.369Z,8.68
2023-02-12T13:27:11.484Z,8.54
2023-02-12T13:30:23.743Z,8.49
2023-02-12T13:33:02.623Z,8.45
2023-02-12T13:35:31.497Z,8.47
2023-02-12T13:38:00.686Z,8.68
2023-02-12T13:40:30.513Z,9.01
2023-02-12T13:43:13.314Z,9.21
2023-02-12T13:45:59.763Z,9.29
2023-02-12T13:48:56.248Z,9.37
2023-02-12T13:51:34.746Z,9.31
2023-02-12T13:54:26.113Z,9.15
2023-02-12T13:57:00.448Z,8.91
2023-02-12T13:59:34.365Z,8.66
2023-02-12T14:02:25.308Z,8.46
2023-02-12T14:05:00.629Z,8.29
2023-02-12T14:07:47.660Z,8.09
2023-02-12T14:10:22.783Z,7.84
2023-02-12T14:12:50.313Z,7.56
2023-02-12T14:15:29.630Z,7.31
2023-02-12T14:18:02.556Z,7.10
2023-02-12T14:20:30.934Z,6.96
2023-02-12T14:23:22.849Z,6.81
2023-02-12T14:25:58.111Z,6.63
2023-02-12T14:28:55.088Z,6.47
2023-02-12T14:31:32.190Z,6.30
2023-02-12T14:34:05.040Z,6.16
2023-02-12T14:36:43.297Z,6.01
2023-02-12T14:39:19.384Z,5.82
2023-02-12T14:41:48.868Z,5.64
2023-02-12T14:44:20.533Z,5.51
2023-02-12T14:46:55.161Z,5.39
2023-02-12T14:49:29.033Z,5.25
2023-02-12T14:52:07.987Z,5.05
2023-02-12T14:54:41.692Z,4.87
2023-02-12T14:57:36.397Z,4.66
2023-02-12T15:00:18.879Z,4.43
2023-02-12T15:02:55.908Z,4.21
2023-02-12T15:05:28.107Z,4.03
2023-02-12T15:08:04.998Z,3.87
2023-02-12T15:10:42.250Z,3.71
2023-02-12T15:13:30.530Z,3.53
2023-02-12T15:16:23.329Z,3.37
2023-02-12T15:19:19.469Z,3.24
2023-02-12T15:21:46.845Z,3.12
2023-02-12T15:24:21.075Z,3.07
2023-02-12T15:26:53.526Z,3.71
2023-02-12T15:29:41.481Z,4.61
2023-02-12T15:32:15.682Z,5.05
2023-02-12T15:34:43.148Z,4.61
2023-02-12T15:37:10.222Z,4.07
2023-02-12T15:39:43.760Z,3.63
2023-02-12T15:42:31.832Z,3.27
2023-02-12T15:45:20.168Z,2.97
2023-02-12T15:48:01.105Z,3.01
2023-02-12T15:50:30.380Z,3.85
2023-02-12T15:52:57.565Z,4.63
2023-02-12T15:55:27.615Z,4.94
2023-02-12T15:57:57.952Z,4.39
2023-02-12T16:00:24.701Z,3.75
2023-02-12T16:02:55.071Z,3.26
2023-02-12T16:05:24.051Z,3.05
2023-02-12T16:07:51.679Z,3.70
2023-02-12T16:10:21.070Z,4.35
2023-02-12T16:12:49.487Z,4.85
2023-02-12T16:15:42.776Z,5.05
2023-02-12T16:18:24.940Z,4.38
2023-02-12T16:21:04.423Z,3.72
2023-02-12T16:23:32.026Z,3.23
2023-02-12T16:25:59.649Z,2.87
2023-02-12T16:28:31.803Z,2.72
2023-02-12T16:31:13.471Z,3.38
2023-02-12T16:33:48.750Z,4.35
2023-02-12T16:36:24.310Z,4.93
2023-02-12T16:38:51.287Z,4.35
2023-02-12T16:41:18.220Z,3.61
2023-02-12T16:43:47.307Z,3.11
2023-02-12T16:46:16.957Z,3.29
2023-02-12T16:48:51.959Z,3.96
2023-02-12T16:51:26.196Z,4.54
2023-02-12T16:53:57.887Z,4.96
2023-02-12T16:56:27.421Z,5.16
2023-02-12T16:58:58.446Z,4.50
2023-02-12T17:01:26.754Z,3.71
2023-02-12T17:03:55.489Z,3.40
2023-02-12T17:06:30.872Z,3.95
2023-02-12T17:08:58.560Z,4.61
2023-02-12T17:11:27.832Z,5.10
2023-02-12T17:13:57.332Z,4.67
2023-02-12T17:16:30.709Z,3.81
2023-02-12T17:18:59.569Z,3.30
2023-02-12T17:21:53.211Z,3.73
2023-02-12T17:24:26.045Z,4.55
2023-02-12T17:26:54.461Z,5.03
2023-02-12T17:29:23.761Z,5.29
2023-02-12T17:31:53.784Z,5.50
2023-02-12T17:34:22.239Z,4.80
2023-02-12T17:36:50.037Z,3.99
2023-02-12T17:39:18.040Z,3.35
2023-02-12T17:41:45.967Z,2.86
2023-02-12T17:44:15.437Z,2.66
2023-02-12T17:46:43.168Z,3.25
2023-02-12T17:49:10.409Z,3.87
2023-02-12T17:51:37.664Z,4.32
2023-02-12T17:54:04.876Z,4.64
2023-02-12T17:56:32.040Z,4.93
2023-02-12T17:58:58.972Z,5.22
2023-02-12T18:01:26.431Z,5.49
2023-02-12T18:03:55.745Z,4.90
2023-02-12T18:06:25.561Z,3.98
2023-02-12T18:08:52.920Z,3.73
2023-02-12T18:11:20.282Z,4.19
2023-02-12T18:13:47.679Z,4.64
2023-02-12T18:16:15.110Z,5.11
2023-02-12T18:18:42.653Z,5.34
2023-02-12T18:21:15.554Z,5.26
2023-02-12T18:23:43.841Z,4.32
2023-02-12T18:26:18.600Z,3.61
2023-02-12T18:28:46.142Z,3.98
2023-02-12T18:31:13.311Z,5.27
2023-02-12T18:33:40.979Z,5.79
2023-02-12T18:36:11.072Z,4.61
2023-02-12T18:38:39.461Z,3.80
2023-02-12T18:41:15.654Z,5.33
2023-02-12T18:43:44.006Z,6.20
2023-02-12T18:46:18.726Z,5.00
2023-02-12T18:48:45.909Z,3.91
2023-02-12T18:51:22.661Z,3.71
2023-02-12T18:54:01.435Z,5.52
2023-02-12T18:56:33.781Z,6.86
2023-02-12T18:59:04.927Z,5.99
2023-02-12T19:01:33.744Z,4.85
2023-02-12T19:04:03.587Z,4.29
2023-02-12T19:06:31.195Z,5.90
2023-02-12T19:09:01.161Z,7.47
2023-02-12T19:11:29.592Z,7.10
2023-02-12T19:13:57.362Z,5.85
2023-02-12T19:16:27.776Z,4.89
2023-02-12T19:19:04.727Z,5.60
2023-02-12T19:21:32.349Z,7.37
2023-02-12T19:24:01.374Z,6.97
2023-02-12T19:26:29.816Z,5.72
2023-02-12T19:28:57.877Z,4.88
2023-02-12T19:31:28.368Z,6.10
2023-02-12T19:34:01.718Z,7.55
2023-02-12T19:36:33.039Z,6.73
2023-02-12T19:39:01.458Z,5.67
2023-02-12T19:41:34.184Z,4.73
2023-02-12T19:44:03.959Z,4.91
2023-02-12T19:46:34.468Z,6.86
2023-02-12T19:49:05.510Z,8.02
2023-02-12T19:51:32.868Z,7.05
2023-02-12T19:54:04.915Z,5.91
2023-02-12T19:56:31.905Z,5.06
2023-02-12T19:58:59.031Z,4.97
2023-02-12T20:01:27.237Z,6.89
2023-02-12T20:03:55.558Z,8.09
2023-02-12T20:06:26.880Z,7.22
2023-02-12T20:08:54.936Z,6.08
2023-02-12T20:11:29.003Z,5.21
2023-02-12T20:13:56.900Z,5.13
2023-02-12T20:16:31.296Z,6.93
2023-02-12T20:19:20.360Z,8.16
2023-02-12T20:21:53.868Z,7.05
2023-02-12T20:24:26.467Z,5.95
2023-02-12T20:26:54.581Z,5.63
2023-02-12T20:29:21.839Z,7.28
2023-02-12T20:31:49.449Z,8.30
2023-02-12T20:34:18.421Z,7.41
2023-02-12T20:36:46.997Z,6.29
2023-02-12T20:39:16.724Z,5.40
2023-02-12T20:41:43.870Z,5.49
2023-02-12T20:44:17.057Z,7.26
2023-02-12T20:46:56.096Z,7.62
2023-02-12T20:49:25.093Z,6.50
2023-02-12T20:51:53.175Z,5.51
2023-02-12T20:54:20.427Z,5.36
2023-02-12T20:56:49.393Z,7.28
2023-02-12T20:59:16.470Z,8.01
2023-02-12T21:01:43.414Z,6.94
2023-02-12T21:04:17.126Z,5.89
2023-02-12T21:06:45.097Z,5.62
2023-02-12T21:09:14.334Z,7.49
2023-02-12T21:11:45.894Z,8.51
2023-02-12T21:14:23.642Z,7.36
2023-02-12T21:16:53.937Z,6.15
2023-02-12T21:19:22.143Z,5.55
2023-02-12T21:21:49.695Z,6.91
2023-02-12T21:24:19.781Z,8.82
2023-02-12T21:26:46.493Z,7.99
2023-02-12T21:29:14.136Z,6.68
2023-02-12T21:31:46.324Z,5.75
2023-02-12T21:34:17.109Z,5.66
2023-02-12T21:36:46.581Z,7.49
2023-02-12T21:39:19.036Z,8.88
2023-02-12T21:41:45.979Z,7.89
2023-02-12T21:44:15.204Z,6.68
2023-02-12T21:46:42.291Z,5.74
2023-02-12T21:49:10.945Z,6.59
2023-02-12T21:51:43.789Z,8.52
2023-02-12T21:54:13.637Z,8.23
2023-02-12T21:56:41.396Z,6.91
2023-02-12T21:59:09.271Z,6.30
2023-02-12T22:01:39.081Z,7.64
2023-02-12T22:04:07.258Z,8.68
2023-02-12T22:06:38.768Z,7.85
2023-02-12T22:09:08.292Z,6.61
2023-02-12T22:11:36.823Z,6.58
2023-02-12T22:14:04.695Z,8.35
2023-02-12T22:16:32.098Z,9.67
2023-02-12T22:19:01.900Z,8.56
2023-02-12T22:21:30.141Z,6.92
2023-02-12T22:23:57.804Z,6.50
2023-02-12T22:26:27.929Z,8.52
2023-02-12T22:28:58.260Z,9.90
2023-02-12T22:31:29.463Z,8.58
2023-02-12T22:34:10.674Z,7.18
2023-02-12T22:36:39.277Z,8.30
2023-02-12T22:39:06.518Z,9.69
2023-02-12T22:41:33.978Z,9.42
2023-02-12T22:44:02.595Z,7.89
2023-02-12T22:46:29.826Z,7.73
2023-02-12T22:49:00.472Z,9.69
2023-02-12T22:51:30.591Z,9.52
2023-02-12T22:53:58.473Z,7.99
2023-02-12T22:56:26.025Z,7.33
2023-02-12T22:58:57.699Z,8.78
2023-02-12T23:01:25.429Z,10.16
2023-02-12T23:03:53.422Z,9.54
2023-02-12T23:06:23.800Z,8.02
2023-02-12T23:08:52.954Z,7.78
2023-02-12T23:11:20.891Z,9.49
2023-02-12T23:13:48.075Z,10.04
2023-02-12T23:16:15.254Z,8.68
2023-02-12T23:18:42.524Z,8.10
2023-02-12T23:21:09.742Z,9.09
2023-02-12T23:23:36.800Z,10.13
2023-02-12T23:26:03.861Z,9.30
2023-02-12T23:28:31.185Z,8.44
2023-02-12T23:30:58.982Z,9.64
2023-02-12T23:33:26.256Z,10.69
2023-02-12T23:35:53.114Z,10.30
2023-02-12T23:38:20.068Z,9.11
2023-02-12T23:40:48.606Z,9.59
2023-02-12T23:43:17.957Z,10.80
2023-02-12T23:45:47.386Z,10.27
2023-02-12T23:48:14.518Z,9.09
2023-02-12T23:50:41.979Z,9.97
2023-02-12T23:53:10.261Z,10.63
2023-02-12T23:55:38.354Z,10.69
2023-02-12T23:58:06.624Z,9.31
